createdAt,value
2022-12-26T00:01:24.889Z,2.72
2022-12-26T00:06:25.403Z,3.15
2022-12-26T00:08:54.071Z,2.60
2022-12-26T00:11:22.635Z,2.45
2022-12-26T00:13:59.413Z,2.92
2022-12-26T00:16:27.104Z,2.53
2022-12-26T00:18:55.206Z,2.15
2022-12-26T00:21:27.581Z,2.67
2022-12-26T00:23:59.399Z,3.17
2022-12-26T00:26:30.096Z,3.63
2022-12-26T00:28:58.477Z,2.83
2022-12-26T00:31:29.394Z,3.25
2022-12-26T00:33:56.758Z,2.90
2022-12-26T00:36:31.300Z,2.78
2022-12-26T00:39:01.209Z,2.80
2022-12-26T00:41:29.630Z,3.58
2022-12-26T00:43:57.357Z,2.97
2022-12-26T00:46:26.875Z,2.80
2022-12-26T00:48:54.794Z,2.90
2022-12-26T00:51:22.155Z,2.70
2022-12-26T00:53:49.568Z,2.10
2022-12-26T00:56:16.854Z,3.22
2022-12-26T00:58:44.584Z,3.17
2022-12-26T01:01:22.729Z,3.22
2022-12-26T01:03:51.105Z,2.80
2022-12-26T01:06:18.798Z,3.30
2022-12-26T01:08:46.197Z,2.85
2022-12-26T01:11:16.147Z,2.95
2022-12-26T01:13:44.497Z,2.90
2022-12-26T01:16:12.571Z,3.03
2022-12-26T01:18:39.880Z,3.20
2022-12-26T01:21:10.700Z,3.63
2022-12-26T01:23:37.864Z,3.67
2022-12-26T01:26:15.882Z,2.70
2022-12-26T01:28:51.361Z,3.10
2022-12-26T01:31:20.994Z,2.65
2022-12-26T01:33:49.167Z,2.60
2022-12-26T01:36:17.816Z,2.90
2022-12-26T01:38:45.969Z,2.50
2022-12-26T01:41:16.795Z,2.55
2022-12-26T01:43:57.577Z,3.78
2022-12-26T01:46:40.814Z,2.65
2022-12-26T01:49:17.389Z,3.00
2022-12-26T01:51:56.718Z,2.80
2022-12-26T01:54:39.366Z,2.40
2022-12-26T01:57:31.250Z,3.08
2022-12-26T02:00:00.794Z,2.90
2022-12-26T02:02:30.032Z,2.33
2022-12-26T02:05:17.293Z,2.88
2022-12-26T02:07:46.523Z,2.85
2022-12-26T02:10:22.243Z,2.70
2022-12-26T02:12:50.646Z,2.40
2022-12-26T02:15:18.789Z,2.17
2022-12-26T02:17:47.711Z,2.88
2022-12-26T02:20:27.822Z,2.70
2022-12-26T02:23:25.746Z,2.85
2022-12-26T02:26:20.792Z,3.08
2022-12-26T02:29:22.725Z,2.75
2022-12-26T02:32:17.389Z,2.65
2022-12-26T02:35:27.128Z,2.10
2022-12-26T02:38:00.162Z,2.40
2022-12-26T02:40:49.977Z,2.67
2022-12-26T02:43:32.031Z,3.65
2022-12-26T02:46:30.847Z,3.10
2022-12-26T02:49:23.765Z,2.65
2022-12-26T02:52:41.750Z,2.92
2022-12-26T02:55:39.148Z,2.40
2022-12-26T02:58:53.624Z,2.58
2022-12-26T03:01:57.575Z,2.83
2022-12-26T03:04:46.622Z,2.83
2022-12-26T03:07:40.533Z,3.42
2022-12-26T03:10:44.479Z,3.15
2022-12-26T03:13:20.034Z,2.60
2022-12-26T03:16:25.889Z,3.67
2022-12-26T03:19:03.369Z,3.45
2022-12-26T03:21:40.235Z,3.10
2022-12-26T03:24:12.391Z,3.67
2022-12-26T03:26:52.386Z,3.08
2022-12-26T03:29:42.653Z,3.03
2022-12-26T03:32:12.845Z,2.88
2022-12-26T03:34:45.042Z,4.75
2022-12-26T03:37:47.904Z,2.75
2022-12-26T03:41:10.873Z,2.90
2022-12-26T03:44:35.324Z,2.88
2022-12-26T03:47:44.289Z,2.92
2022-12-26T03:50:56.167Z,2.63
2022-12-26T03:53:49.163Z,2.70
2022-12-26T03:56:52.377Z,3.20
2022-12-26T03:59:50.480Z,3.67
2022-12-26T04:02:39.962Z,3.10
2022-12-26T04:05:27.880Z,3.03
2022-12-26T04:08:20.235Z,3.63
2022-12-26T04:11:14.803Z,2.67
2022-12-26T04:14:30.688Z,3.28
2022-12-26T04:18:11.824Z,2.53
2022-12-26T04:20:55.348Z,2.88
2022-12-26T04:23:53.933Z,3.53
2022-12-26T04:26:51.424Z,3.15
2022-12-26T04:29:37.471Z,3.50
2022-12-26T04:32:53.163Z,3.17
2022-12-26T04:36:00.992Z,3.17
2022-12-26T04:38:54.290Z,3.15
2022-12-26T04:41:42.383Z,3.08
2022-12-26T04:44:10.477Z,3.38
2022-12-26T04:46:45.452Z,3.95
2022-12-26T04:49:34.851Z,3.40
2022-12-26T04:52:06.422Z,3.92
2022-12-26T04:54:34.047Z,3.97
2022-12-26T04:57:01.330Z,4.30
2022-12-26T04:59:28.919Z,4.22
2022-12-26T05:02:14.906Z,4.57
2022-12-26T05:05:01.188Z,4.35
2022-12-26T05:07:52.445Z,4.68
2022-12-26T05:10:27.160Z,4.78
2022-12-26T05:12:55.414Z,4.95
2022-12-26T05:15:23.059Z,4.50
2022-12-26T05:18:08.947Z,5.25
2022-12-26T05:20:54.789Z,4.88
2022-12-26T05:23:45.494Z,3.92
2022-12-26T05:29:08.159Z,3.67
2022-12-26T05:31:36.780Z,4.07
2022-12-26T05:34:05.826Z,3.40
2022-12-26T05:36:52.164Z,3.22
2022-12-26T05:39:19.951Z,3.47
2022-12-26T05:41:47.484Z,3.50
2022-12-26T05:44:15.142Z,3.78
2022-12-26T05:46:43.096Z,3.22
2022-12-26T05:49:11.119Z,3.08
2022-12-26T05:51:38.849Z,3.13
2022-12-26T05:54:06.186Z,3.15
2022-12-26T05:56:34.087Z,3.08
2022-12-26T05:59:02.214Z,3.70
2022-12-26T06:01:30.805Z,4.57
2022-12-26T06:04:00.152Z,4.55
2022-12-26T06:06:28.473Z,5.13
2022-12-26T06:08:57.079Z,4.10
2022-12-26T06:11:26.741Z,4.50
2022-12-26T06:13:55.226Z,4.80
2022-12-26T06:16:23.118Z,4.47
2022-12-26T06:18:50.549Z,3.70
2022-12-26T06:21:20.003Z,3.20
2022-12-26T06:23:48.011Z,3.17
2022-12-26T06:26:15.620Z,3.70
2022-12-26T06:28:43.694Z,4.18
2022-12-26T06:31:21.269Z,3.92
2022-12-26T06:33:58.383Z,3.85
2022-12-26T06:36:27.905Z,3.17
2022-12-26T06:38:55.590Z,3.55
2022-12-26T06:41:24.726Z,3.33
2022-12-26T06:43:52.224Z,3.78
2022-12-26T06:46:24.115Z,3.78
2022-12-26T06:48:52.925Z,3.40
2022-12-26T06:51:29.114Z,3.58
2022-12-26T06:53:56.459Z,3.25
2022-12-26T06:56:27.492Z,3.42
2022-12-26T06:59:06.387Z,3.90
2022-12-26T07:01:35.514Z,3.58
2022-12-26T07:04:04.641Z,3.67
2022-12-26T07:06:37.699Z,3.67
2022-12-26T07:09:15.195Z,3.53
2022-12-26T07:11:46.619Z,3.83
2022-12-26T07:14:14.614Z,4.20
2022-12-26T07:16:44.556Z,3.85
2022-12-26T07:19:14.285Z,4.47
2022-12-26T07:21:42.882Z,3.45
2022-12-26T07:24:21.024Z,4.03
2022-12-26T07:26:49.823Z,3.22
2022-12-26T07:29:17.622Z,3.70
2022-12-26T07:31:45.069Z,3.50
2022-12-26T07:34:12.481Z,3.58
2022-12-26T07:36:40.799Z,3.47
2022-12-26T07:39:08.223Z,3.25
2022-12-26T07:41:54.219Z,3.85
2022-12-26T07:44:21.474Z,3.30
2022-12-26T07:46:48.805Z,3.17
2022-12-26T07:49:16.139Z,3.05
2022-12-26T07:51:43.498Z,3.40
2022-12-26T07:54:12.017Z,20.10
2022-12-26T07:56:41.180Z,9.75
2022-12-26T07:59:16.663Z,11.30
2022-12-26T08:01:44.444Z,7.97
2022-12-26T08:04:13.586Z,4.43
2022-12-26T08:06:40.962Z,4.70
2022-12-26T08:09:12.393Z,4.90
2022-12-26T08:11:39.677Z,5.68
2022-12-26T08:16:58.263Z,4.25
2022-12-26T08:19:25.634Z,5.60
2022-12-26T08:21:53.040Z,5.15
2022-12-26T08:24:20.603Z,4.78
2022-12-26T08:26:48.038Z,4.20
2022-12-26T08:29:15.472Z,4.80
2022-12-26T08:31:43.361Z,5.68
2022-12-26T08:34:10.847Z,4.88
2022-12-26T08:36:39.423Z,4.55
2022-12-26T08:39:06.796Z,4.32
2022-12-26T08:41:34.362Z,4.45
2022-12-26T08:44:26.733Z,4.28
2022-12-26T08:46:50.549Z,5.25
2022-12-26T08:49:17.979Z,4.47
2022-12-26T08:51:45.325Z,4.57
2022-12-26T08:54:12.666Z,5.43
2022-12-26T08:56:40.151Z,5.95
2022-12-26T08:59:07.531Z,5.18
2022-12-26T09:01:35.045Z,7.13
2022-12-26T09:04:04.235Z,5.78
2022-12-26T09:06:37.677Z,5.50
2022-12-26T09:09:07.764Z,6.72
2022-12-26T09:11:35.521Z,6.97
2022-12-26T09:14:04.577Z,7.10
2022-12-26T09:16:49.384Z,6.32
2022-12-26T09:19:18.511Z,6.05
2022-12-26T09:21:47.032Z,6.00
2022-12-26T09:24:18.231Z,4.35
2022-12-26T09:26:45.710Z,2.47
2022-12-26T09:29:13.804Z,2.17
2022-12-26T09:31:41.471Z,1.55
2022-12-26T09:34:08.990Z,1.63
2022-12-26T09:36:38.654Z,1.75
2022-12-26T09:39:06.831Z,1.55
2022-12-26T09:41:45.899Z,1.42
2022-12-26T09:44:27.781Z,1.50
2022-12-26T09:47:36.504Z,1.15
2022-12-26T09:50:38.300Z,1.65
2022-12-26T09:53:19.303Z,1.65
2022-12-26T09:56:01.370Z,1.40
2022-12-26T09:58:57.801Z,1.90
2022-12-26T10:01:33.352Z,2.78
2022-12-26T10:04:02.654Z,2.38
2022-12-26T10:06:57.867Z,2.72
2022-12-26T10:09:55.484Z,1.60
2022-12-26T10:13:24.874Z,6.68
2022-12-26T10:16:05.654Z,2.97
2022-12-26T10:18:32.996Z,6.10
2022-12-26T10:21:25.284Z,3.10
2022-12-26T10:24:00.799Z,1.73
2022-12-26T10:26:42.455Z,7.13
2022-12-26T10:29:09.521Z,3.08
2022-12-26T10:31:42.378Z,1.65
2022-12-26T10:34:29.855Z,8.05
2022-12-26T10:37:00.128Z,7.43
2022-12-26T10:39:56.405Z,4.40
2022-12-26T10:42:42.681Z,6.05
2022-12-26T10:45:12.948Z,6.15
2022-12-26T10:47:45.536Z,5.82
2022-12-26T10:50:31.045Z,3.65
2022-12-26T10:53:00.947Z,8.40
2022-12-26T10:55:35.330Z,1.65
2022-12-26T10:58:30.333Z,1.73
2022-12-26T11:00:59.499Z,3.28
2022-12-26T11:03:26.956Z,1.83
2022-12-26T11:06:12.104Z,3.03
2022-12-26T11:08:51.976Z,3.45
2022-12-26T11:11:47.333Z,4.00
2022-12-26T11:14:34.581Z,2.10
2022-12-26T11:17:13.059Z,1.90
2022-12-26T11:19:45.382Z,1.70
2022-12-26T11:22:29.931Z,1.50
2022-12-26T11:25:21.450Z,1.50
2022-12-26T11:27:59.038Z,1.30
2022-12-26T11:30:40.299Z,1.77
2022-12-26T11:33:20.029Z,1.42
2022-12-26T11:36:09.252Z,1.97
2022-12-26T11:38:58.123Z,2.10
2022-12-26T11:41:36.496Z,2.53
2022-12-26T11:44:16.259Z,1.83
2022-12-26T11:47:07.474Z,1.88
2022-12-26T11:50:12.059Z,3.13
2022-12-26T11:52:53.000Z,1.80
2022-12-26T11:55:26.731Z,2.03
2022-12-26T11:58:06.557Z,1.35
2022-12-26T12:01:06.004Z,1.58
2022-12-26T12:03:42.327Z,1.88
2022-12-26T12:06:34.120Z,1.77
2022-12-26T12:09:30.933Z,1.85
2022-12-26T12:12:16.296Z,2.33
2022-12-26T12:15:01.727Z,1.48
2022-12-26T12:17:36.067Z,1.30
2022-12-26T12:20:32.418Z,2.20
2022-12-26T12:23:38.571Z,1.70
2022-12-26T12:26:58.793Z,1.70
2022-12-26T12:29:43.943Z,1.95
2022-12-26T12:32:31.707Z,1.88
2022-12-26T12:35:19.208Z,1.88
2022-12-26T12:38:21.125Z,1.67
2022-12-26T12:41:10.917Z,1.77
2022-12-26T12:46:46.744Z,1.92
2022-12-26T12:49:45.406Z,2.40
2022-12-26T12:53:03.492Z,2.00
2022-12-26T12:56:02.954Z,1.90
2022-12-26T12:59:00.867Z,1.75
2022-12-26T13:01:42.909Z,2.45
2022-12-26T13:04:22.221Z,1.42
2022-12-26T13:07:11.781Z,2.60
2022-12-26T13:09:46.668Z,1.90
2022-12-26T13:12:26.456Z,2.08
2022-12-26T13:15:03.081Z,1.70
2022-12-26T13:17:49.715Z,2.90
2022-12-26T13:20:55.937Z,2.67
2022-12-26T13:23:56.603Z,2.42
2022-12-26T13:26:37.760Z,2.72
2022-12-26T13:29:13.314Z,2.67
2022-12-26T13:31:43.171Z,3.42
2022-12-26T13:34:17.396Z,3.55
2022-12-26T13:36:48.624Z,3.60
2022-12-26T13:39:27.783Z,2.90
2022-12-26T13:42:28.484Z,2.60
2022-12-26T13:47:43.846Z,2.95
2022-12-26T13:50:56.721Z,2.22
2022-12-26T13:53:26.893Z,2.30
2022-12-26T13:56:02.658Z,3.55
2022-12-26T13:59:09.844Z,1.90
2022-12-26T14:01:55.978Z,2.17
2022-12-26T14:05:04.597Z,2.60
2022-12-26T14:08:07.560Z,1.98
2022-12-26T14:10:57.968Z,3.05
2022-12-26T14:13:46.471Z,2.35
2022-12-26T14:16:42.266Z,2.00
2022-12-26T14:19:37.108Z,1.90
2022-12-26T14:22:27.928Z,2.17
2022-12-26T14:28:25.691Z,2.50
2022-12-26T14:30:57.639Z,2.67
2022-12-26T14:33:51.192Z,2.58
2022-12-26T14:36:50.150Z,2.45
2022-12-26T14:40:11.387Z,2.88
2022-12-26T14:43:12.708Z,2.05
2022-12-26T14:45:44.580Z,2.40
2022-12-26T14:48:18.190Z,1.80
2022-12-26T14:50:47.148Z,2.20
2022-12-26T14:53:29.136Z,2.45
2022-12-26T14:56:15.932Z,2.65
2022-12-26T14:58:47.481Z,2.22
2022-12-26T15:01:20.619Z,2.45
2022-12-26T15:04:03.272Z,2.15
2022-12-26T15:07:30.416Z,2.03
2022-12-26T15:10:22.544Z,2.72
2022-12-26T15:13:29.179Z,9.65
2022-12-26T15:16:37.635Z,4.10
2022-12-26T15:19:32.351Z,2.65
2022-12-26T15:22:21.684Z,2.42
2022-12-26T15:25:22.393Z,2.50
2022-12-26T15:31:36.619Z,2.20
2022-12-26T15:34:43.570Z,2.55
2022-12-26T15:37:39.241Z,2.67
2022-12-26T15:40:30.199Z,1.85
2022-12-26T15:43:28.402Z,2.30
2022-12-26T15:46:18.971Z,3.17
2022-12-26T15:49:20.780Z,3.00
2022-12-26T15:52:15.520Z,3.30
2022-12-26T15:55:16.940Z,2.70
2022-12-26T15:58:33.406Z,2.40
2022-12-26T16:01:01.246Z,2.30
2022-12-26T16:03:34.993Z,2.40
2022-12-26T16:07:05.160Z,2.33
2022-12-26T16:09:41.752Z,1.92
2022-12-26T16:12:25.716Z,2.58
2022-12-26T16:15:25.148Z,3.65
2022-12-26T16:17:52.610Z,6.28
2022-12-26T16:20:50.597Z,6.15
2022-12-26T16:23:24.900Z,5.15
2022-12-26T16:25:55.753Z,3.90
2022-12-26T16:28:41.669Z,4.60
2022-12-26T16:31:16.212Z,5.70
2022-12-26T16:33:44.527Z,4.10
2022-12-26T16:36:24.728Z,4.65
2022-12-26T16:38:53.932Z,4.63
2022-12-26T16:41:23.663Z,4.63
2022-12-26T16:43:57.059Z,4.43
2022-12-26T16:46:30.051Z,3.58
2022-12-26T16:49:01.799Z,5.00
2022-12-26T16:51:44.073Z,4.95
2022-12-26T16:54:29.643Z,5.10
2022-12-26T16:57:06.338Z,5.57
2022-12-26T16:59:59.618Z,5.68
2022-12-26T17:02:34.658Z,7.10
2022-12-26T17:05:38.065Z,6.68
2022-12-26T17:08:06.024Z,4.88
2022-12-26T17:10:37.465Z,4.50
2022-12-26T17:13:09.744Z,5.43
2022-12-26T17:15:49.147Z,5.40
2022-12-26T17:18:45.109Z,5.07
2022-12-26T17:21:28.327Z,4.82
2022-12-26T17:24:26.650Z,4.32
2022-12-26T17:27:16.497Z,3.55
2022-12-26T17:29:56.673Z,3.73
2022-12-26T17:32:46.673Z,3.42
2022-12-26T17:35:23.645Z,3.53
2022-12-26T17:37:59.360Z,2.55
2022-12-26T17:40:41.360Z,2.50
2022-12-26T17:43:11.664Z,2.75
2022-12-26T17:45:46.849Z,3.30
2022-12-26T17:48:14.470Z,2.63
2022-12-26T17:50:45.681Z,2.78
2022-12-26T17:53:39.793Z,2.42
2022-12-26T17:56:13.854Z,2.38
2022-12-26T17:58:41.198Z,2.42
2022-12-26T18:05:09.344Z,2.45
2022-12-26T18:07:37.444Z,2.00
2022-12-26T18:10:08.978Z,3.15
2022-12-26T18:12:38.324Z,3.00
2022-12-26T18:15:07.608Z,2.40
2022-12-26T18:17:40.258Z,2.45
2022-12-26T18:20:18.272Z,2.72
2022-12-26T18:22:49.237Z,2.55
2022-12-26T18:25:20.008Z,4.68
2022-12-26T18:30:26.216Z,5.47
2022-12-26T18:32:54.478Z,4.45
2022-12-26T18:35:40.369Z,4.60
2022-12-26T18:39:19.021Z,4.88
2022-12-26T18:41:46.503Z,5.30
2022-12-26T18:44:15.777Z,4.75
2022-12-26T18:46:43.789Z,5.63
2022-12-26T18:49:11.715Z,5.47
2022-12-26T18:51:39.537Z,4.68
2022-12-26T18:54:06.836Z,5.13
2022-12-26T18:56:34.338Z,5.07
2022-12-26T18:59:01.612Z,4.82
2022-12-26T19:01:28.964Z,5.82
2022-12-26T19:03:57.875Z,4.65
2022-12-26T19:06:30.318Z,4.75
2022-12-26T19:08:58.556Z,4.70
2022-12-26T19:11:25.999Z,5.35
2022-12-26T19:13:54.074Z,4.35
2022-12-26T19:16:23.478Z,4.30
2022-12-26T19:18:51.591Z,3.55
2022-12-26T19:21:19.804Z,3.70
2022-12-26T19:23:48.207Z,4.00
2022-12-26T19:26:18.776Z,3.80
2022-12-26T19:28:57.023Z,3.42
2022-12-26T19:31:25.446Z,3.35
2022-12-26T19:33:53.552Z,3.15
2022-12-26T19:36:21.397Z,3.70
2022-12-26T19:38:54.256Z,3.63
2022-12-26T19:41:23.178Z,2.75
2022-12-26T19:43:59.494Z,2.88
2022-12-26T19:46:28.405Z,2.33
2022-12-26T19:48:56.217Z,3.22
2022-12-26T19:51:24.136Z,2.45
2022-12-26T19:53:52.247Z,2.35
2022-12-26T19:56:24.361Z,2.45
2022-12-26T19:58:56.714Z,2.55
2022-12-26T20:01:29.185Z,2.30
2022-12-26T20:04:04.181Z,2.50
2022-12-26T20:06:35.383Z,2.22
2022-12-26T20:09:12.101Z,2.00
2022-12-26T20:11:50.579Z,2.10
2022-12-26T20:14:21.368Z,2.10
2022-12-26T20:17:09.377Z,2.17
2022-12-26T20:19:37.844Z,2.38
2022-12-26T20:22:06.877Z,1.83
2022-12-26T20:24:35.275Z,2.53
2022-12-26T20:27:03.560Z,2.33
2022-12-26T20:29:32.218Z,2.45
2022-12-26T20:32:00.257Z,2.05
2022-12-26T20:34:28.474Z,2.40
2022-12-26T20:36:56.379Z,2.20
2022-12-26T20:39:25.844Z,2.17
2022-12-26T20:41:53.723Z,2.47
2022-12-26T20:44:21.615Z,2.67
2022-12-26T20:46:49.445Z,1.95
2022-12-26T20:49:17.547Z,2.20
2022-12-26T20:51:46.126Z,2.38
2022-12-26T20:54:16.304Z,2.33
2022-12-26T20:56:44.871Z,2.67
2022-12-26T20:59:13.041Z,2.33
2022-12-26T21:01:41.496Z,2.35
2022-12-26T21:04:18.712Z,2.10
2022-12-26T21:06:47.740Z,2.35
2022-12-26T21:09:16.075Z,2.90
2022-12-26T21:11:45.923Z,2.25
2022-12-26T21:14:18.294Z,2.55
2022-12-26T21:16:59.099Z,2.45
2022-12-26T21:19:29.674Z,2.78
2022-12-26T21:21:58.086Z,2.75
2022-12-26T21:24:31.024Z,2.63
2022-12-26T21:26:59.260Z,2.85
2022-12-26T21:29:31.775Z,2.45
2022-12-26T21:32:00.945Z,2.75
2022-12-26T21:34:32.309Z,2.47
2022-12-26T21:37:18.761Z,2.80
2022-12-26T21:39:47.498Z,3.00
2022-12-26T21:42:15.236Z,2.38
2022-12-26T21:44:42.741Z,2.53
2022-12-26T21:47:10.314Z,2.45
2022-12-26T21:49:37.998Z,2.67
2022-12-26T21:52:08.173Z,3.03
2022-12-26T21:54:54.316Z,2.70
2022-12-26T21:57:22.217Z,2.45
2022-12-26T21:59:59.338Z,2.28
2022-12-26T22:02:56.658Z,2.38
2022-12-26T22:05:30.277Z,2.25
2022-12-26T22:08:00.916Z,2.53
2022-12-26T22:10:51.928Z,2.38
2022-12-26T22:13:21.499Z,2.20
2022-12-26T22:16:08.927Z,2.30
2022-12-26T22:18:41.757Z,2.20
2022-12-26T22:21:18.372Z,2.40
2022-12-26T22:23:47.452Z,2.42
2022-12-26T22:26:16.227Z,1.73
2022-12-26T22:28:44.288Z,2.10
2022-12-26T22:31:32.326Z,1.98
2022-12-26T22:34:06.806Z,1.90
2022-12-26T22:36:34.868Z,2.25
2022-12-26T22:39:02.332Z,2.00
2022-12-26T22:41:29.986Z,1.98
2022-12-26T22:43:57.472Z,1.98
2022-12-26T22:46:25.033Z,1.75
2022-12-26T22:48:52.483Z,2.20
2022-12-26T22:51:25.052Z,1.50
2022-12-26T22:53:57.635Z,2.03
2022-12-26T22:56:26.172Z,1.55
2022-12-26T22:58:55.510Z,1.90
2022-12-26T23:01:23.728Z,1.52
2022-12-26T23:03:51.163Z,1.70
2022-12-26T23:06:34.618Z,1.52
2022-12-26T23:09:06.103Z,1.40
2022-12-26T23:11:35.777Z,2.13
2022-12-26T23:14:06.924Z,1.67
2022-12-26T23:16:51.652Z,1.58
2022-12-26T23:20:09.313Z,1.40
2022-12-26T23:22:37.004Z,1.65
2022-12-26T23:25:04.490Z,1.67
2022-12-26T23:27:50.421Z,2.15
2022-12-26T23:30:20.883Z,1.33
2022-12-26T23:32:53.042Z,1.80
2022-12-26T23:35:22.266Z,2.13
2022-12-26T23:37:50.534Z,1.27
2022-12-26T23:40:19.607Z,1.48
2022-12-26T23:42:46.957Z,1.67
2022-12-26T23:45:15.795Z,1.40
2022-12-26T23:47:45.069Z,2.55
2022-12-26T23:50:14.414Z,1.52
2022-12-26T23:52:42.883Z,2.00
2022-12-26T23:55:11.309Z,1.65
2022-12-26T23:57:38.865Z,1.70
